KPOB

Pope AAF Airport

Fayetteville, North Carolina, USA
METAR KPOB 191456Z AUTO 25005KT 10SM CLR 02/M04 A3026 RMK AO2 SLP252 T00151042 52012 $
Observed Flight Rules
Jan-19 @ 14:56 UTC (30 minutes ago) Visual Flight Rules
Wind Visibility Clouds
250° at 5 knots 10 miles
  • Clear skies
Temperatures Readings
Current 2°C / 36°F
Dewpoint -4°C / 25°F
Humidity 65%
Altimeter 30.26" Hg
Pressure 1025.2 hPa
Elevation 66
METAR KPOB 191456Z AUTO 25005KT 10SM CLR 02/M04 A3026 RMK AO2 SLP252 T00151042 52012 $
Observed Flight Rules
Jan-19 @ 14:56 UTC
(30 minutes ago)
VFR
Wind Visibility
250° at 5 knots 10 miles
Clouds
  • Clear skies
Temperature Dewpoint
2°C / 36°F -4°C / 25°F
Humidity Altimeter Pressure
65% 30.26" Hg 1025.2 hPa